sensor_id;sensor_type;location;lat;lon;timestamp;pressure;altitude;pressure_sealevel;temperature;humidity
12360;BME280;6244;51.460;7.090;2023-09-12T00:02:38;100312.50;;;23.40;64.67
12360;BME280;6244;51.460;7.090;2023-09-12T00:07:36;100306.34;;;23.32;65.40
12360;BME280;6244;51.460;7.090;2023-09-12T00:12:32;100303.81;;;23.38;64.67
12360;BME280;6244;51.460;7.090;2023-09-12T00:17:29;100299.13;;;23.40;64.45
12360;BME280;6244;51.460;7.090;2023-09-12T00:22:25;100280.22;;;23.42;64.47
12360;BME280;6244;51.460;7.090;2023-09-12T00:27:23;100283.41;;;23.37;64.63
12360;BME280;6244;51.460;7.090;2023-09-12T00:32:20;100277.91;;;23.23;65.09
12360;BME280;6244;51.460;7.090;2023-09-12T00:37:16;100307.19;;;23.08;64.71
12360;BME280;6244;51.460;7.090;2023-09-12T00:42:13;100348.00;;;23.10;66.23
12360;BME280;6244;51.460;7.090;2023-09-12T00:47:11;100376.28;;;23.29;64.94
12360;BME280;6244;51.460;7.090;2023-09-12T00:52:09;100380.63;;;23.30;64.78
12360;BME280;6244;51.460;7.090;2023-09-12T00:57:07;100279.78;;;22.98;66.36
12360;BME280;6244;51.460;7.090;2023-09-12T01:02:03;100219.03;;;22.66;67.54
12360;BME280;6244;51.460;7.090;2023-09-12T01:07:02;100197.97;;;22.46;69.13
12360;BME280;6244;51.460;7.090;2023-09-12T01:11:59;100212.69;;;22.50;69.70
12360;BME280;6244;51.460;7.090;2023-09-12T01:16:58;100220.69;;;22.67;69.51
12360;BME280;6244;51.460;7.090;2023-09-12T01:27:32;100267.06;;;23.00;67.78
12360;BME280;6244;51.460;7.090;2023-09-12T01:32:31;100257.34;;;22.91;67.69
12360;BME280;6244;51.460;7.090;2023-09-12T01:37:28;100276.25;;;22.97;67.35
12360;BME280;6244;51.460;7.090;2023-09-12T01:42:28;100269.72;;;23.00;67.98
12360;BME280;6244;51.460;7.090;2023-09-12T01:47:28;100271.72;;;22.90;67.85
12360;BME280;6244;51.460;7.090;2023-09-12T01:52:26;100252.00;;;22.91;68.45
12360;BME280;6244;51.460;7.090;2023-09-12T01:57:23;100267.19;;;22.58;68.86
12360;BME280;6244;51.460;7.090;2023-09-12T02:02:20;100311.09;;;22.55;69.94
12360;BME280;6244;51.460;7.090;2023-09-12T02:07:18;100296.63;;;22.74;69.37
12360;BME280;6244;51.460;7.090;2023-09-12T02:12:14;100275.38;;;22.80;69.99
12360;BME280;6244;51.460;7.090;2023-09-12T02:17:11;100251.84;;;22.84;69.70
12360;BME280;6244;51.460;7.090;2023-09-12T02:22:07;100239.31;;;22.84;69.87
12360;BME280;6244;51.460;7.090;2023-09-12T02:27:05;100254.13;;;22.63;70.65
12360;BME280;6244;51.460;7.090;2023-09-12T02:32:02;100274.03;;;22.76;70.11
12360;BME280;6244;51.460;7.090;2023-09-12T02:36:59;100258.34;;;22.90;69.79
12360;BME280;6244;51.460;7.090;2023-09-12T02:41:55;100257.34;;;22.91;69.25
12360;BME280;6244;51.460;7.090;2023-09-12T02:46:53;100264.69;;;22.72;69.16
12360;BME280;6244;51.460;7.090;2023-09-12T02:51:50;100276.69;;;22.52;69.07
12360;BME280;6244;51.460;7.090;2023-09-12T02:56:46;100301.31;;;22.13;71.67
12360;BME280;6244;51.460;7.090;2023-09-12T03:01:43;100293.03;;;22.41;70.51
12360;BME280;6244;51.460;7.090;2023-09-12T03:06:41;100319.75;;;22.41;71.68
12360;BME280;6244;51.460;7.090;2023-09-12T03:11:37;100305.09;;;22.53;71.14
12360;BME280;6244;51.460;7.090;2023-09-12T03:16:34;100291.03;;;22.43;72.09
12360;BME280;6244;51.460;7.090;2023-09-12T03:21:31;100233.59;;;22.05;72.68
12360;BME280;6244;51.460;7.090;2023-09-12T03:26:29;100204.84;;;20.96;79.69
12360;BME280;6244;51.460;7.090;2023-09-12T03:31:25;100212.78;;;20.70;83.44
12360;BME280;6244;51.460;7.090;2023-09-12T03:36:24;100249.06;;;20.63;83.70
12360;BME280;6244;51.460;7.090;2023-09-12T03:41:20;100215.69;;;20.77;84.57
12360;BME280;6244;51.460;7.090;2023-09-12T03:46:21;100213.94;;;20.68;84.97
12360;BME280;6244;51.460;7.090;2023-09-12T03:51:18;100223.06;;;20.83;84.38
12360;BME280;6244;51.460;7.090;2023-09-12T03:56:15;100202.44;;;20.85;83.73
12360;BME280;6244;51.460;7.090;2023-09-12T04:01:11;100201.19;;;20.97;84.07
12360;BME280;6244;51.460;7.090;2023-09-12T04:06:09;100197.94;;;21.11;84.58
12360;BME280;6244;51.460;7.090;2023-09-12T04:11:06;100189.50;;;21.24;84.06
12360;BME280;6244;51.460;7.090;2023-09-12T04:16:03;100184.09;;;21.34;83.00
12360;BME280;6244;51.460;7.090;2023-09-12T04:20:59;100179.53;;;21.26;82.15
12360;BME280;6244;51.460;7.090;2023-09-12T04:25:57;100176.03;;;20.82;82.47
12360;BME280;6244;51.460;7.090;2023-09-12T04:31:01;100177.94;;;20.64;82.98
12360;BME280;6244;51.460;7.090;2023-09-12T04:35:59;100180.34;;;20.57;83.94
12360;BME280;6244;51.460;7.090;2023-09-12T04:40:57;100178.88;;;20.80;83.75
12360;BME280;6244;51.460;7.090;2023-09-12T04:45:58;100185.53;;;20.59;84.29
12360;BME280;6244;51.460;7.090;2023-09-12T04:50:55;100197.13;;;20.49;84.04
12360;BME280;6244;51.460;7.090;2023-09-12T04:55:52;100207.25;;;20.46;84.56
12360;BME280;6244;51.460;7.090;2023-09-12T05:00:50;100202.50;;;20.75;84.49
12360;BME280;6244;51.460;7.090;2023-09-12T05:05:47;100207.69;;;20.77;82.21
12360;BME280;6244;51.460;7.090;2023-09-12T05:10:43;100200.47;;;20.95;82.41
12360;BME280;6244;51.460;7.090;2023-09-12T05:15:41;100208.19;;;21.24;81.32
12360;BME280;6244;51.460;7.090;2023-09-12T05:20:38;100214.22;;;21.26;81.63
12360;BME280;6244;51.460;7.090;2023-09-12T05:25:35;100227.31;;;21.20;81.00
12360;BME280;6244;51.460;7.090;2023-09-12T05:30:32;100238.22;;;20.82;82.44
12360;BME280;6244;51.460;7.090;2023-09-12T05:35:28;100213.06;;;20.59;84.06
12360;BME280;6244;51.460;7.090;2023-09-12T05:40:26;100197.44;;;20.46;85.09
12360;BME280;6244;51.460;7.090;2023-09-12T05:45:23;100211.47;;;20.03;86.86
12360;BME280;6244;51.460;7.090;2023-09-12T05:50:19;100223.81;;;19.77;88.36
12360;BME280;6244;51.460;7.090;2023-09-12T05:55:16;100227.22;;;19.59;89.35
12360;BME280;6244;51.460;7.090;2023-09-12T06:00:14;100249.41;;;19.87;90.29
12360;BME280;6244;51.460;7.090;2023-09-12T06:05:11;100274.72;;;20.19;89.53
12360;BME280;6244;51.460;7.090;2023-09-12T06:10:08;100292.31;;;20.12;88.83
12360;BME280;6244;51.460;7.090;2023-09-12T06:15:06;100303.00;;;20.02;88.92
12360;BME280;6244;51.460;7.090;2023-09-12T06:20:05;100316.22;;;20.21;89.74
12360;BME280;6244;51.460;7.090;2023-09-12T06:25:03;100345.41;;;19.86;89.06
12360;BME280;6244;51.460;7.090;2023-09-12T06:30:00;100422.34;;;19.02;94.00
12360;BME280;6244;51.460;7.090;2023-09-12T06:34:56;100391.38;;;18.82;97.74
12360;BME280;6244;51.460;7.090;2023-09-12T06:39:54;100357.69;;;19.01;97.05
12360;BME280;6244;51.460;7.090;2023-09-12T06:44:50;100315.84;;;18.94;95.57
12360;BME280;6244;51.460;7.090;2023-09-12T06:49:47;100371.06;;;18.61;94.86
12360;BME280;6244;51.460;7.090;2023-09-12T06:54:43;100353.88;;;18.85;96.63
12360;BME280;6244;51.460;7.090;2023-09-12T06:59:41;100275.25;;;18.82;96.70
12360;BME280;6244;51.460;7.090;2023-09-12T07:04:38;100307.22;;;18.32;95.02
12360;BME280;6244;51.460;7.090;2023-09-12T07:09:34;100324.44;;;18.57;96.69
12360;BME280;6244;51.460;7.090;2023-09-12T07:14:31;100299.88;;;18.94;97.30
12360;BME280;6244;51.460;7.090;2023-09-12T07:19:29;100276.25;;;19.10;96.40
12360;BME280;6244;51.460;7.090;2023-09-12T07:24:27;100293.03;;;18.72;96.01
12360;BME280;6244;51.460;7.090;2023-09-12T07:29:23;100276.53;;;18.68;96.82
12360;BME280;6244;51.460;7.090;2023-09-12T07:34:20;100279.59;;;18.93;97.22
12360;BME280;6244;51.460;7.090;2023-09-12T07:39:18;100278.56;;;19.32;97.07
12360;BME280;6244;51.460;7.090;2023-09-12T07:44:14;100282.03;;;19.62;97.29
12360;BME280;6244;51.460;7.090;2023-09-12T07:49:11;100271.78;;;19.94;98.25
12360;BME280;6244;51.460;7.090;2023-09-12T07:54:08;100270.94;;;20.49;99.36
12360;BME280;6244;51.460;7.090;2023-09-12T07:59:06;100283.72;;;20.81;99.65
12360;BME280;6244;51.460;7.090;2023-09-12T08:04:03;100272.97;;;21.08;99.34
12360;BME280;6244;51.460;7.090;2023-09-12T08:08:59;100269.97;;;21.11;97.12
12360;BME280;6244;51.460;7.090;2023-09-12T08:13:56;100279.66;;;20.95;95.44
12360;BME280;6244;51.460;7.090;2023-09-12T08:18:54;100290.09;;;20.70;93.79
12360;BME280;6244;51.460;7.090;2023-09-12T08:23:51;100304.38;;;20.79;95.10
12360;BME280;6244;51.460;7.090;2023-09-12T08:28:47;100296.75;;;20.84;95.64
12360;BME280;6244;51.460;7.090;2023-09-12T08:33:44;100306.59;;;20.84;95.80
12360;BME280;6244;51.460;7.090;2023-09-12T08:38:41;100309.41;;;21.00;96.70
12360;BME280;6244;51.460;7.090;2023-09-12T08:43:38;100309.69;;;21.58;99.57
12360;BME280;6244;51.460;7.090;2023-09-12T08:48:35;100323.41;;;22.23;99.51
12360;BME280;6244;51.460;7.090;2023-09-12T08:53:33;100330.78;;;23.12;95.87
12360;BME280;6244;51.460;7.090;2023-09-12T08:58:32;100319.00;;;24.34;96.34
12360;BME280;6244;51.460;7.090;2023-09-12T09:03:30;100318.13;;;25.33;89.77
12360;BME280;6244;51.460;7.090;2023-09-12T09:08:28;100322.56;;;26.08;84.61
12360;BME280;6244;51.460;7.090;2023-09-12T09:13:25;100333.03;;;26.69;81.82
12360;BME280;6244;51.460;7.090;2023-09-12T09:18:23;100331.69;;;27.43;75.30
12360;BME280;6244;51.460;7.090;2023-09-12T09:23:20;100336.34;;;28.25;72.23
12360;BME280;6244;51.460;7.090;2023-09-12T09:28:19;100344.50;;;29.39;67.37
12360;BME280;6244;51.460;7.090;2023-09-12T09:33:16;100347.63;;;29.76;56.70
12360;BME280;6244;51.460;7.090;2023-09-12T09:38:15;100352.84;;;29.64;57.52
12360;BME280;6244;51.460;7.090;2023-09-12T09:43:19;100349.22;;;30.10;51.85
12360;BME280;6244;51.460;7.090;2023-09-12T09:48:19;100361.94;;;30.67;49.15
12360;BME280;6244;51.460;7.090;2023-09-12T09:53:17;100356.94;;;28.87;52.55
12360;BME280;6244;51.460;7.090;2023-09-12T09:58:14;100360.59;;;28.19;51.31
12360;BME280;6244;51.460;7.090;2023-09-12T10:03:13;100363.81;;;27.17;49.29
12360;BME280;6244;51.460;7.090;2023-09-12T10:08:12;100361.88;;;25.94;55.27
12360;BME280;6244;51.460;7.090;2023-09-12T10:13:16;100355.94;;;26.14;57.63
12360;BME280;6244;51.460;7.090;2023-09-12T10:18:19;100359.41;;;26.95;55.35
12360;BME280;6244;51.460;7.090;2023-09-12T10:23:22;100352.44;;;28.47;50.30
12360;BME280;6244;51.460;7.090;2023-09-12T10:28:21;100343.50;;;29.53;48.07
12360;BME280;6244;51.460;7.090;2023-09-12T10:33:18;100344.31;;;30.45;45.94
12360;BME280;6244;51.460;7.090;2023-09-12T10:38:16;100342.63;;;31.45;42.11
12360;BME280;6244;51.460;7.090;2023-09-12T10:43:15;100336.59;;;32.23;41.33
12360;BME280;6244;51.460;7.090;2023-09-12T10:48:13;100334.88;;;31.49;42.74
12360;BME280;6244;51.460;7.090;2023-09-12T10:53:11;100320.38;;;29.77;46.67
12360;BME280;6244;51.460;7.090;2023-09-12T10:58:09;100319.34;;;29.45;48.85
12360;BME280;6244;51.460;7.090;2023-09-12T11:03:37;100325.75;;;28.85;49.99
12360;BME280;6244;51.460;7.090;2023-09-12T11:08:35;100333.25;;;28.89;49.69
12360;BME280;6244;51.460;7.090;2023-09-12T11:13:38;100325.97;;;29.76;47.58
12360;BME280;6244;51.460;7.090;2023-09-12T11:19:17;100321.44;;;29.37;48.17
12360;BME280;6244;51.460;7.090;2023-09-12T11:24:15;100329.47;;;28.77;48.23
12360;BME280;6244;51.460;7.090;2023-09-12T11:29:13;100321.91;;;28.46;50.24
12360;BME280;6244;51.460;7.090;2023-09-12T11:34:11;100318.97;;;28.34;51.55
12360;BME280;6244;51.460;7.090;2023-09-12T11:39:22;100315.19;;;28.97;49.56
12360;BME280;6244;51.460;7.090;2023-09-12T11:44:20;100302.28;;;29.38;49.51
12360;BME280;6244;51.460;7.090;2023-09-12T11:49:19;100320.34;;;29.91;47.42
12360;BME280;6244;51.460;7.090;2023-09-12T11:54:18;100329.16;;;30.76;44.35
12360;BME280;6244;51.460;7.090;2023-09-12T11:59:15;100316.84;;;31.36;42.70
12360;BME280;6244;51.460;7.090;2023-09-12T12:04:14;100312.56;;;31.47;42.55
12360;BME280;6244;51.460;7.090;2023-09-12T12:09:12;100294.59;;;31.71;41.69
12360;BME280;6244;51.460;7.090;2023-09-12T12:14:10;100294.13;;;31.55;43.75
12360;BME280;6244;51.460;7.090;2023-09-12T12:19:07;100302.78;;;31.46;42.52
12360;BME280;6244;51.460;7.090;2023-09-12T12:24:05;100297.91;;;30.73;41.29
12360;BME280;6244;51.460;7.090;2023-09-12T12:29:11;100292.25;;;29.85;44.37
12360;BME280;6244;51.460;7.090;2023-09-12T12:34:08;100291.50;;;29.25;46.99
12360;BME280;6244;51.460;7.090;2023-09-12T12:39:10;100293.72;;;28.55;47.63
12360;BME280;6244;51.460;7.090;2023-09-12T12:44:06;100294.06;;;27.91;49.19
12360;BME280;6244;51.460;7.090;2023-09-12T12:49:05;100284.13;;;27.92;49.53
12360;BME280;6244;51.460;7.090;2023-09-12T12:54:05;100284.13;;;27.92;51.53
12360;BME280;6244;51.460;7.090;2023-09-12T12:59:10;100273.91;;;28.28;49.68
12360;BME280;6244;51.460;7.090;2023-09-12T13:04:08;100263.75;;;28.30;51.71
12360;BME280;6244;51.460;7.090;2023-09-12T13:09:07;100262.41;;;28.06;49.70
12360;BME280;6244;51.460;7.090;2023-09-12T13:14:04;100259.28;;;28.09;51.45
12360;BME280;6244;51.460;7.090;2023-09-12T13:19:04;100253.84;;;28.03;51.46
12360;BME280;6244;51.460;7.090;2023-09-12T13:24:03;100241.13;;;27.90;51.57
12360;BME280;6244;51.460;7.090;2023-09-12T13:28:59;100233.28;;;27.54;51.53
12360;BME280;6244;51.460;7.090;2023-09-12T13:33:58;100230.63;;;27.61;53.25
12360;BME280;6244;51.460;7.090;2023-09-12T13:38:55;100216.31;;;27.60;51.49
12360;BME280;6244;51.460;7.090;2023-09-12T13:43:53;100225.19;;;27.54;50.80
12360;BME280;6244;51.460;7.090;2023-09-12T13:48:51;100221.69;;;27.60;50.44
12360;BME280;6244;51.460;7.090;2023-09-12T13:53:47;100219.94;;;27.74;53.17
12360;BME280;6244;51.460;7.090;2023-09-12T13:58:44;100214.56;;;27.46;52.50
12360;BME280;6244;51.460;7.090;2023-09-12T14:03:41;100211.81;;;27.39;53.87
12360;BME280;6244;51.460;7.090;2023-09-12T14:08:38;100207.78;;;27.22;53.58
12360;BME280;6244;51.460;7.090;2023-09-12T14:13:35;100206.34;;;26.98;55.42
12360;BME280;6244;51.460;7.090;2023-09-12T14:18:31;100205.03;;;26.87;54.63
12360;BME280;6244;51.460;7.090;2023-09-12T14:23:31;100203.38;;;27.14;54.29
12360;BME280;6244;51.460;7.090;2023-09-12T14:28:28;100200.13;;;27.19;53.11
12360;BME280;6244;51.460;7.090;2023-09-12T14:33:27;100200.59;;;27.29;52.08
12360;BME280;6244;51.460;7.090;2023-09-12T14:38:23;100198.97;;;27.35;51.65
12360;BME280;6244;51.460;7.090;2023-09-12T14:43:22;100199.19;;;27.40;52.05
12360;BME280;6244;51.460;7.090;2023-09-12T14:48:18;100190.03;;;27.34;51.84
12360;BME280;6244;51.460;7.090;2023-09-12T14:53:15;100187.00;;;27.44;52.82
12360;BME280;6244;51.460;7.090;2023-09-12T14:58:12;100175.34;;;27.37;53.64
12360;BME280;6244;51.460;7.090;2023-09-12T15:03:10;100173.47;;;27.03;54.08
12360;BME280;6244;51.460;7.090;2023-09-12T15:08:06;100171.34;;;26.70;55.18
12360;BME280;6244;51.460;7.090;2023-09-12T15:13:03;100168.34;;;26.37;56.03
12360;BME280;6244;51.460;7.090;2023-09-12T15:17:59;100178.00;;;26.31;56.61
12360;BME280;6244;51.460;7.090;2023-09-12T15:22:58;100170.66;;;26.61;55.20
12360;BME280;6244;51.460;7.090;2023-09-12T15:27:54;100170.78;;;26.53;55.45
12360;BME280;6244;51.460;7.090;2023-09-12T15:32:51;100158.34;;;26.52;53.63
12360;BME280;6244;51.460;7.090;2023-09-12T15:37:47;100165.47;;;26.39;54.79
12360;BME280;6244;51.460;7.090;2023-09-12T15:42:46;100166.41;;;26.31;56.17
12360;BME280;6244;51.460;7.090;2023-09-12T15:47:43;100152.44;;;26.21;56.63
12360;BME280;6244;51.460;7.090;2023-09-12T15:52:39;100151.69;;;26.05;57.37
12360;BME280;6244;51.460;7.090;2023-09-12T15:57:37;100156.28;;;26.12;57.38
12360;BME280;6244;51.460;7.090;2023-09-12T16:02:41;100159.84;;;25.97;58.82
12360;BME280;6244;51.460;7.090;2023-09-12T16:07:38;100163.97;;;25.79;59.52
12360;BME280;6244;51.460;7.090;2023-09-12T16:12:34;100160.75;;;25.68;59.57
12360;BME280;6244;51.460;7.090;2023-09-12T16:17:31;100156.03;;;25.56;59.96
12360;BME280;6244;51.460;7.090;2023-09-12T16:22:29;100159.47;;;25.50;59.45
12360;BME280;6244;51.460;7.090;2023-09-12T16:27:25;100168.19;;;25.37;59.91
12360;BME280;6244;51.460;7.090;2023-09-12T16:32:22;100173.72;;;25.35;60.80
12360;BME280;6244;51.460;7.090;2023-09-12T16:37:29;100174.47;;;25.14;61.21
12360;BME280;6244;51.460;7.090;2023-09-12T16:42:28;100182.91;;;24.88;62.59
12360;BME280;6244;51.460;7.090;2023-09-12T16:47:25;100178.72;;;24.71;62.54
12360;BME280;6244;51.460;7.090;2023-09-12T16:52:22;100184.63;;;24.67;62.98
12360;BME280;6244;51.460;7.090;2023-09-12T16:57:20;100183.59;;;24.68;62.80
12360;BME280;6244;51.460;7.090;2023-09-12T17:02:17;100182.22;;;24.57;63.14
12360;BME280;6244;51.460;7.090;2023-09-12T17:07:13;100174.03;;;24.50;63.65
12360;BME280;6244;51.460;7.090;2023-09-12T17:12:10;100164.53;;;24.63;63.56
12360;BME280;6244;51.460;7.090;2023-09-12T17:17:11;100185.75;;;24.72;63.35
12360;BME280;6244;51.460;7.090;2023-09-12T17:22:07;100182.72;;;24.75;62.98
12360;BME280;6244;51.460;7.090;2023-09-12T17:27:04;100181.22;;;24.73;63.34
12360;BME280;6244;51.460;7.090;2023-09-12T17:32:11;100186.78;;;24.71;63.07
12360;BME280;6244;51.460;7.090;2023-09-12T17:37:10;100196.75;;;24.63;62.68
12360;BME280;6244;51.460;7.090;2023-09-12T17:42:09;100203.06;;;24.70;63.61
12360;BME280;6244;51.460;7.090;2023-09-12T17:47:06;100201.69;;;24.74;63.10
12360;BME280;6244;51.460;7.090;2023-09-12T17:52:04;100208.06;;;24.73;63.32
12360;BME280;6244;51.460;7.090;2023-09-12T17:57:01;100217.66;;;24.67;63.95
12360;BME280;6244;51.460;7.090;2023-09-12T18:01:57;100214.88;;;24.60;64.75
12360;BME280;6244;51.460;7.090;2023-09-12T18:06:54;100217.75;;;24.28;65.31
12360;BME280;6244;51.460;7.090;2023-09-12T18:11:53;100223.06;;;24.05;67.26
12360;BME280;6244;51.460;7.090;2023-09-12T18:16:50;100218.53;;;22.78;76.24
12360;BME280;6244;51.460;7.090;2023-09-12T18:21:47;100231.00;;;22.13;81.54
12360;BME280;6244;51.460;7.090;2023-09-12T18:26:44;100245.19;;;21.79;83.56
12360;BME280;6244;51.460;7.090;2023-09-12T18:31:43;100243.50;;;21.44;86.95
12360;BME280;6244;51.460;7.090;2023-09-12T18:36:39;100255.63;;;21.30;89.63
12360;BME280;6244;51.460;7.090;2023-09-12T18:41:36;100252.66;;;21.33;91.20
12360;BME280;6244;51.460;7.090;2023-09-12T18:46:32;100242.38;;;21.47;91.61
12360;BME280;6244;51.460;7.090;2023-09-12T18:51:30;100248.19;;;21.42;92.17
12360;BME280;6244;51.460;7.090;2023-09-12T18:56:27;100235.09;;;21.31;94.13
12360;BME280;6244;51.460;7.090;2023-09-12T19:01:23;100243.25;;;21.29;95.44
12360;BME280;6244;51.460;7.090;2023-09-12T19:06:20;100236.78;;;21.32;96.30
12360;BME280;6244;51.460;7.090;2023-09-12T19:11:18;100233.09;;;21.33;97.02
12360;BME280;6244;51.460;7.090;2023-09-12T19:16:14;100231.16;;;21.43;97.64
12360;BME280;6244;51.460;7.090;2023-09-12T19:21:11;100240.38;;;21.49;96.87
12360;BME280;6244;51.460;7.090;2023-09-12T19:26:07;100245.53;;;21.24;96.99
12360;BME280;6244;51.460;7.090;2023-09-12T19:31:06;100248.00;;;21.18;97.84
12360;BME280;6244;51.460;7.090;2023-09-12T19:36:02;100247.00;;;21.19;98.21
12360;BME280;6244;51.460;7.090;2023-09-12T19:40:59;100246.41;;;21.07;97.97
12360;BME280;6244;51.460;7.090;2023-09-12T19:46:00;100233.78;;;21.09;98.71
12360;BME280;6244;51.460;7.090;2023-09-12T19:50:59;100221.78;;;20.87;97.98
12360;BME280;6244;51.460;7.090;2023-09-12T19:55:58;100217.19;;;20.97;99.54
12360;BME280;6244;51.460;7.090;2023-09-12T20:00:57;100209.47;;;20.94;99.31
12360;BME280;6244;51.460;7.090;2023-09-12T20:05:54;100212.25;;;20.85;99.67
12360;BME280;6244;51.460;7.090;2023-09-12T20:10:52;100227.13;;;20.51;100.00
12360;BME280;6244;51.460;7.090;2023-09-12T20:15:48;100241.13;;;20.36;100.00
12360;BME280;6244;51.460;7.090;2023-09-12T20:20:45;100225.03;;;20.28;100.00
12360;BME280;6244;51.460;7.090;2023-09-12T20:25:42;100229.72;;;20.43;100.00
12360;BME280;6244;51.460;7.090;2023-09-12T20:30:40;100221.50;;;20.72;100.00
12360;BME280;6244;51.460;7.090;2023-09-12T20:35:37;100201.78;;;20.91;100.00
12360;BME280;6244;51.460;7.090;2023-09-12T20:40:34;100179.69;;;20.99;100.00
12360;BME280;6244;51.460;7.090;2023-09-12T20:45:35;100180.53;;;20.99;100.00
12360;BME280;6244;51.460;7.090;2023-09-12T20:50:33;100181.94;;;20.68;100.00
12360;BME280;6244;51.460;7.090;2023-09-12T20:55:38;100203.81;;;20.53;100.00
12360;BME280;6244;51.460;7.090;2023-09-12T21:00:34;100192.69;;;20.76;100.00
12360;BME280;6244;51.460;7.090;2023-09-12T21:05:31;100197.28;;;20.92;100.00
12360;BME280;6244;51.460;7.090;2023-09-12T21:10:29;100197.69;;;20.97;100.00
12360;BME280;6244;51.460;7.090;2023-09-12T21:15:25;100201.91;;;20.64;100.00
12360;BME280;6244;51.460;7.090;2023-09-12T21:20:26;100205.25;;;20.84;100.00
12360;BME280;6244;51.460;7.090;2023-09-12T21:25:23;100217.88;;;20.81;100.00
12360;BME280;6244;51.460;7.090;2023-09-12T21:30:21;100225.38;;;20.60;100.00
12360;BME280;6244;51.460;7.090;2023-09-12T21:35:17;100233.97;;;20.54;100.00
12360;BME280;6244;51.460;7.090;2023-09-12T21:40:14;100231.84;;;20.75;100.00
12360;BME280;6244;51.460;7.090;2023-09-12T21:45:11;100240.78;;;20.48;100.00
12360;BME280;6244;51.460;7.090;2023-09-12T21:50:10;100234.34;;;20.23;100.00
12360;BME280;6244;51.460;7.090;2023-09-12T21:55:08;100249.06;;;20.18;100.00
12360;BME280;6244;51.460;7.090;2023-09-12T22:00:05;100255.25;;;20.18;100.00
12360;BME280;6244;51.460;7.090;2023-09-12T22:05:21;100257.22;;;20.16;100.00
12360;BME280;6244;51.460;7.090;2023-09-12T22:10:18;100244.63;;;20.36;100.00
12360;BME280;6244;51.460;7.090;2023-09-12T22:15:14;100244.44;;;20.20;100.00
12360;BME280;6244;51.460;7.090;2023-09-12T22:20:12;100251.88;;;19.99;100.00
12360;BME280;6244;51.460;7.090;2023-09-12T22:25:12;100239.59;;;19.88;100.00
12360;BME280;6244;51.460;7.090;2023-09-12T22:30:09;100230.66;;;19.79;100.00
12360;BME280;6244;51.460;7.090;2023-09-12T22:35:06;100238.72;;;19.97;100.00
12360;BME280;6244;51.460;7.090;2023-09-12T22:40:03;100242.97;;;19.80;100.00
12360;BME280;6244;51.460;7.090;2023-09-12T22:45:02;100246.09;;;20.21;100.00
12360;BME280;6244;51.460;7.090;2023-09-12T22:50:03;100240.16;;;20.55;100.00
12360;BME280;6244;51.460;7.090;2023-09-12T22:55:00;100250.38;;;20.59;100.00
12360;BME280;6244;51.460;7.090;2023-09-12T22:59:59;100247.44;;;20.70;100.00
12360;BME280;6244;51.460;7.090;2023-09-12T23:04:57;100241.19;;;20.97;99.22
12360;BME280;6244;51.460;7.090;2023-09-12T23:09:54;100241.84;;;20.73;95.73
12360;BME280;6244;51.460;7.090;2023-09-12T23:14:50;100245.75;;;19.88;96.88
12360;BME280;6244;51.460;7.090;2023-09-12T23:19:49;100241.38;;;20.15;98.27
12360;BME280;6244;51.460;7.090;2023-09-12T23:24:47;100237.75;;;20.34;97.22
12360;BME280;6244;51.460;7.090;2023-09-12T23:29:44;100234.06;;;19.99;95.11
12360;BME280;6244;51.460;7.090;2023-09-12T23:34:41;100235.75;;;19.73;97.58
12360;BME280;6244;51.460;7.090;2023-09-12T23:39:37;100226.81;;;19.91;96.97
12360;BME280;6244;51.460;7.090;2023-09-12T23:44:35;100232.19;;;19.82;95.23
12360;BME280;6244;51.460;7.090;2023-09-12T23:49:32;100229.78;;;19.61;93.18
12360;BME280;6244;51.460;7.090;2023-09-12T23:54:29;100226.28;;;19.51;94.50
12360;BME280;6244;51.460;7.090;2023-09-12T23:59:26;100221.28;;;19.38;95.05
